createdAt,value
2018-07-09T00:00:16.525Z,2.40
2018-07-09T00:02:47.938Z,2.37
2018-07-09T00:05:19.388Z,2.47
2018-07-09T00:07:50.836Z,2.53
2018-07-09T00:10:38.364Z,2.60
2018-07-09T00:13:09.629Z,2.40
2018-07-09T00:15:41.027Z,2.07
2018-07-09T00:18:12.109Z,2.10
2018-07-09T00:20:43.659Z,2.43
2018-07-09T00:23:15.804Z,2.30
2018-07-09T00:25:48.270Z,2.23
2018-07-09T00:28:20.047Z,2.47
2018-07-09T00:30:51.279Z,2.47
2018-07-09T00:33:22.861Z,2.57
2018-07-09T00:35:54.001Z,2.43
2018-07-09T00:38:25.568Z,2.73
2018-07-09T00:40:57.107Z,2.67
2018-07-09T00:43:28.444Z,2.50
2018-07-09T00:45:59.512Z,2.47
2018-07-09T00:48:31.040Z,2.20
2018-07-09T00:51:02.470Z,2.60
2018-07-09T00:53:33.830Z,2.20
2018-07-09T00:56:05.291Z,2.20
2018-07-09T00:58:36.723Z,2.70
2018-07-09T01:01:07.910Z,3.00
2018-07-09T01:03:39.416Z,2.60
2018-07-09T01:06:10.508Z,2.87
2018-07-09T01:08:41.724Z,2.70
2018-07-09T01:11:29.139Z,3.90
2018-07-09T01:14:00.476Z,3.63
2018-07-09T01:16:31.664Z,3.20
2018-07-09T01:19:02.893Z,3.03
2018-07-09T01:21:34.159Z,2.90
2018-07-09T01:24:05.517Z,3.00
2018-07-09T01:26:36.845Z,2.70
2018-07-09T01:29:08.107Z,3.00
2018-07-09T01:31:39.659Z,2.50
2018-07-09T01:34:11.069Z,2.73
2018-07-09T01:36:42.453Z,2.80
2018-07-09T01:39:13.652Z,2.60
2018-07-09T01:41:45.075Z,2.87
2018-07-09T01:44:16.131Z,2.50
2018-07-09T01:46:47.363Z,2.70
2018-07-09T01:49:18.456Z,3.10
2018-07-09T01:51:49.797Z,3.00
2018-07-09T01:54:21.039Z,2.90
2018-07-09T01:56:52.547Z,2.80
2018-07-09T01:59:24.187Z,3.10
2018-07-09T02:01:55.466Z,2.90
2018-07-09T02:04:26.672Z,3.17
2018-07-09T02:06:57.782Z,2.70
2018-07-09T02:09:28.923Z,2.73
2018-07-09T02:12:00.231Z,2.67
2018-07-09T02:14:31.204Z,2.70
2018-07-09T02:17:02.672Z,3.30
2018-07-09T02:19:33.936Z,2.83
2018-07-09T02:22:05.416Z,2.80
2018-07-09T02:24:36.803Z,2.67
2018-07-09T02:27:08.336Z,2.97
2018-07-09T02:29:39.846Z,3.33
2018-07-09T02:32:11.293Z,3.30
2018-07-09T02:34:42.605Z,3.20
2018-07-09T02:37:14.111Z,3.23
2018-07-09T02:39:45.617Z,3.00
2018-07-09T02:42:16.772Z,3.33
2018-07-09T02:44:47.978Z,3.23
2018-07-09T02:47:19.291Z,3.40
2018-07-09T02:49:50.291Z,3.00
2018-07-09T02:52:21.569Z,3.43
2018-07-09T02:54:53.067Z,3.20
2018-07-09T02:57:24.192Z,2.87
2018-07-09T02:59:55.263Z,3.10
2018-07-09T03:02:26.569Z,3.33
2018-07-09T03:04:57.972Z,3.40
2018-07-09T03:07:29.656Z,2.93
2018-07-09T03:10:00.884Z,3.23
2018-07-09T03:12:32.441Z,3.03
2018-07-09T03:15:03.777Z,3.13
2018-07-09T03:17:35.328Z,3.37
2018-07-09T03:20:06.800Z,2.97
2018-07-09T03:22:38.140Z,3.33
2018-07-09T03:25:10.324Z,2.90
2018-07-09T03:27:41.574Z,2.90
2018-07-09T03:30:12.979Z,3.13
2018-07-09T03:32:44.566Z,5.97
2018-07-09T03:35:15.720Z,3.80
2018-07-09T03:37:47.136Z,2.93
2018-07-09T03:40:18.628Z,2.93
2018-07-09T03:42:49.763Z,3.23
2018-07-09T03:45:21.075Z,3.50
2018-07-09T03:47:52.480Z,3.13
2018-07-09T03:50:23.634Z,5.13
2018-07-09T03:52:54.666Z,3.27
2018-07-09T03:55:26.331Z,3.40
2018-07-09T03:57:57.673Z,3.30
2018-07-09T04:00:29.103Z,3.13
2018-07-09T04:03:00.497Z,3.27
2018-07-09T04:05:32.006Z,4.57
2018-07-09T04:08:03.456Z,3.17
2018-07-09T04:10:34.856Z,4.08
2018-07-09T04:13:06.179Z,3.65
2018-07-09T04:15:37.588Z,3.45
2018-07-09T04:18:08.877Z,3.40
2018-07-09T04:20:40.183Z,4.57
2018-07-09T04:23:11.540Z,3.27
2018-07-09T04:25:43.103Z,3.85
2018-07-09T04:28:14.504Z,3.20
2018-07-09T04:30:45.743Z,2.70
2018-07-09T04:33:17.135Z,3.30
2018-07-09T04:35:48.610Z,3.42
2018-07-09T04:38:19.837Z,3.05
2018-07-09T04:40:51.274Z,3.10
2018-07-09T04:43:22.966Z,3.05
2018-07-09T04:45:54.356Z,3.37
2018-07-09T04:48:25.832Z,3.10
2018-07-09T04:51:03.685Z,3.42
2018-07-09T04:53:34.861Z,3.37
2018-07-09T04:56:06.430Z,2.77
2018-07-09T04:58:37.796Z,3.55
2018-07-09T05:01:09.044Z,3.47
2018-07-09T05:03:40.388Z,3.62
2018-07-09T05:06:11.543Z,6.20
2018-07-09T05:08:42.756Z,3.33
2018-07-09T05:11:14.386Z,3.20
2018-07-09T05:13:45.955Z,4.62
2018-07-09T05:16:17.280Z,4.45
2018-07-09T05:18:48.362Z,3.60
2018-07-09T05:21:19.799Z,2.58
2018-07-09T05:23:51.132Z,4.78
2018-07-09T05:26:22.779Z,3.45
2018-07-09T05:28:54.331Z,4.78
2018-07-09T05:31:25.768Z,4.33
2018-07-09T05:33:57.088Z,4.45
2018-07-09T05:36:28.507Z,3.45
2018-07-09T05:39:00.061Z,3.40
2018-07-09T05:41:31.588Z,6.37
2018-07-09T05:44:03.264Z,3.12
2018-07-09T05:46:34.776Z,3.15
2018-07-09T05:49:06.097Z,3.17
2018-07-09T05:51:37.550Z,3.27
2018-07-09T05:54:08.768Z,3.20
2018-07-09T05:56:40.012Z,3.10
2018-07-09T05:59:11.413Z,3.08
2018-07-09T06:01:42.795Z,3.62
2018-07-09T06:04:14.113Z,4.00
2018-07-09T06:06:45.504Z,3.75
2018-07-09T06:09:17.136Z,8.63
2018-07-09T06:11:48.717Z,11.12
2018-07-09T06:14:20.200Z,3.58
2018-07-09T06:16:51.520Z,2.95
2018-07-09T06:19:22.827Z,3.05
2018-07-09T06:21:54.203Z,3.05
2018-07-09T06:24:25.735Z,5.60
2018-07-09T06:26:57.075Z,2.75
2018-07-09T06:29:28.356Z,4.00
2018-07-09T06:31:59.699Z,4.00
2018-07-09T06:34:31.158Z,3.42
2018-07-09T06:37:02.695Z,8.40
2018-07-09T06:39:34.336Z,3.20
2018-07-09T06:42:05.974Z,3.55
2018-07-09T06:44:37.420Z,4.00
2018-07-09T06:47:08.894Z,4.15
2018-07-09T06:49:40.169Z,3.70
2018-07-09T06:52:11.585Z,3.58
2018-07-09T06:54:42.859Z,3.02
2018-07-09T06:57:14.849Z,4.20
2018-07-09T06:59:46.196Z,4.28
2018-07-09T07:02:17.528Z,3.20
2018-07-09T07:04:48.599Z,3.85
2018-07-09T07:07:20.234Z,3.08
2018-07-09T07:09:51.913Z,3.40
2018-07-09T07:12:23.029Z,3.35
2018-07-09T07:14:54.287Z,3.12
2018-07-09T07:17:25.725Z,3.10
2018-07-09T07:19:57.212Z,2.85
2018-07-09T07:22:28.676Z,3.55
2018-07-09T07:24:59.658Z,3.47
2018-07-09T07:27:31.019Z,2.80
2018-07-09T07:30:02.373Z,3.17
2018-07-09T07:32:33.483Z,3.37
2018-07-09T07:35:04.943Z,3.62
2018-07-09T07:37:36.078Z,3.08
2018-07-09T07:40:08.093Z,3.50
2018-07-09T07:42:39.292Z,3.42
2018-07-09T07:45:10.620Z,3.45
2018-07-09T07:47:42.127Z,3.60
2018-07-09T07:50:13.218Z,3.42
2018-07-09T07:52:44.276Z,3.40
2018-07-09T07:55:15.831Z,3.77
2018-07-09T07:57:47.721Z,3.47
2018-07-09T08:00:19.080Z,3.22
2018-07-09T08:02:49.770Z,3.17
2018-07-09T08:05:21.075Z,3.22
2018-07-09T08:07:52.756Z,3.40
2018-07-09T08:10:23.949Z,3.20
2018-07-09T08:13:27.174Z,3.80
2018-07-09T08:15:26.560Z,4.20
2018-07-09T08:17:57.726Z,3.30
2018-07-09T08:20:29.322Z,3.85
2018-07-09T08:23:00.504Z,3.55
2018-07-09T08:25:31.701Z,3.02
2018-07-09T08:28:03.033Z,3.00
2018-07-09T08:30:34.537Z,3.30
2018-07-09T08:33:05.722Z,3.20
2018-07-09T08:35:37.182Z,3.83
2018-07-09T08:38:08.719Z,3.58
2018-07-09T08:40:40.643Z,3.22
2018-07-09T08:43:11.698Z,3.25
2018-07-09T08:45:43.107Z,3.10
2018-07-09T08:48:14.344Z,3.10
2018-07-09T08:50:45.809Z,3.25
2018-07-09T08:53:17.121Z,3.25
2018-07-09T08:55:48.421Z,3.55
2018-07-09T08:58:19.452Z,2.95
2018-07-09T09:00:50.888Z,3.40
2018-07-09T09:03:22.412Z,3.35
2018-07-09T09:05:53.892Z,3.10
2018-07-09T09:08:25.380Z,3.30
2018-07-09T09:10:56.781Z,3.17
2018-07-09T09:13:28.307Z,3.00
2018-07-09T09:15:59.691Z,3.10
2018-07-09T09:18:31.206Z,3.12
2018-07-09T09:21:02.428Z,3.10
2018-07-09T09:23:33.116Z,2.85
2018-07-09T09:26:04.436Z,2.72
2018-07-09T09:28:35.800Z,3.60
2018-07-09T09:31:07.245Z,3.10
2018-07-09T09:33:38.664Z,2.98
2018-07-09T09:36:10.092Z,3.05
2018-07-09T09:38:41.441Z,3.15
2018-07-09T09:41:13.054Z,3.52
2018-07-09T09:43:44.507Z,3.60
2018-07-09T09:46:15.826Z,3.70
2018-07-09T09:48:47.199Z,3.35
2018-07-09T09:51:18.402Z,3.72
2018-07-09T09:53:49.872Z,3.65
2018-07-09T09:56:21.810Z,3.10
2018-07-09T09:58:53.082Z,3.10
2018-07-09T10:01:24.463Z,2.67
2018-07-09T10:03:55.883Z,2.98
2018-07-09T10:06:27.347Z,3.10
2018-07-09T10:08:58.856Z,2.62
2018-07-09T10:11:30.267Z,2.92
2018-07-09T10:14:01.618Z,2.80
2018-07-09T10:16:33.203Z,2.83
2018-07-09T10:19:04.528Z,3.72
2018-07-09T10:21:35.664Z,2.83
2018-07-09T10:24:07.119Z,2.80
2018-07-09T10:26:38.566Z,2.98
2018-07-09T10:29:09.779Z,2.83
2018-07-09T10:31:41.226Z,2.58
2018-07-09T10:34:12.487Z,3.05
2018-07-09T10:36:44.020Z,2.90
2018-07-09T10:39:15.349Z,3.35
2018-07-09T10:41:46.687Z,3.17
2018-07-09T10:44:18.158Z,3.47
2018-07-09T10:46:49.428Z,3.42
2018-07-09T10:49:20.899Z,2.50
2018-07-09T10:51:52.533Z,2.77
2018-07-09T10:54:23.807Z,2.70
2018-07-09T10:56:55.367Z,2.67
2018-07-09T10:59:27.139Z,3.00
2018-07-09T11:01:58.432Z,3.02
2018-07-09T11:04:29.868Z,2.75
2018-07-09T11:07:01.306Z,2.58
2018-07-09T11:09:32.646Z,2.90
2018-07-09T11:12:04.060Z,2.65
2018-07-09T11:14:35.535Z,2.55
2018-07-09T11:17:06.892Z,2.58
2018-07-09T11:19:37.927Z,3.12
2018-07-09T11:22:08.659Z,2.47
2018-07-09T11:24:40.262Z,2.60
2018-07-09T11:27:11.364Z,2.62
2018-07-09T11:29:42.130Z,3.17
2018-07-09T11:32:13.304Z,2.35
2018-07-09T11:34:44.675Z,2.52
2018-07-09T11:37:16.268Z,2.95
2018-07-09T11:39:47.463Z,2.45
2018-07-09T11:42:18.682Z,2.45
2018-07-09T11:44:49.982Z,2.65
2018-07-09T11:47:21.391Z,2.83
2018-07-09T11:49:52.459Z,2.45
2018-07-09T11:52:24.008Z,3.15
2018-07-09T11:54:55.413Z,2.87
2018-07-09T11:57:26.931Z,3.05
2018-07-09T11:59:58.168Z,4.17
2018-07-09T12:02:29.819Z,2.95
2018-07-09T12:05:01.066Z,3.67
2018-07-09T12:07:32.515Z,3.42
2018-07-09T12:10:04.028Z,4.03
2018-07-09T12:12:35.240Z,3.40
2018-07-09T12:15:06.916Z,2.90
2018-07-09T12:17:38.185Z,3.12
2018-07-09T12:20:09.685Z,4.70
2018-07-09T12:22:41.180Z,4.08
2018-07-09T12:25:12.439Z,4.70
2018-07-09T12:27:43.982Z,4.08
2018-07-09T12:30:16.298Z,3.40
2018-07-09T12:32:46.902Z,3.17
2018-07-09T12:35:18.415Z,2.72
2018-07-09T12:37:49.888Z,2.80
2018-07-09T12:40:21.059Z,3.20
2018-07-09T12:42:52.406Z,3.45
2018-07-09T12:45:23.851Z,4.50
2018-07-09T12:47:55.509Z,7.65
2018-07-09T12:50:27.087Z,3.05
2018-07-09T12:52:58.531Z,3.10
2018-07-09T12:55:29.873Z,5.12
2018-07-09T12:58:01.299Z,2.80
2018-07-09T13:00:32.939Z,2.45
2018-07-09T13:03:04.611Z,2.80
2018-07-09T13:05:36.588Z,2.90
2018-07-09T13:08:08.287Z,3.02
2018-07-09T13:10:40.659Z,2.50
2018-07-09T13:13:12.050Z,3.00
2018-07-09T13:15:43.365Z,2.77
2018-07-09T13:18:14.792Z,2.95
2018-07-09T13:20:46.360Z,2.42
2018-07-09T13:23:18.024Z,3.27
2018-07-09T13:25:49.261Z,3.02
2018-07-09T13:28:20.576Z,3.17
2018-07-09T13:30:52.065Z,2.98
2018-07-09T13:33:22.780Z,2.83
2018-07-09T13:35:54.231Z,3.00
2018-07-09T13:38:25.728Z,2.50
2018-07-09T13:40:57.341Z,2.50
2018-07-09T13:43:28.725Z,2.95
2018-07-09T13:46:00.447Z,2.65
2018-07-09T13:48:31.940Z,2.15
2018-07-09T13:51:03.319Z,2.58
2018-07-09T13:53:35.117Z,3.17
2018-07-09T13:56:06.830Z,2.30
2018-07-09T13:58:39.049Z,2.62
2018-07-09T14:01:10.324Z,2.72
2018-07-09T14:03:41.762Z,2.42
2018-07-09T14:06:13.070Z,2.72
2018-07-09T14:08:44.359Z,2.95
2018-07-09T14:11:15.664Z,2.85
2018-07-09T14:13:46.841Z,2.25
2018-07-09T14:16:18.233Z,2.72
2018-07-09T14:18:49.910Z,3.00
2018-07-09T14:21:21.276Z,2.80
2018-07-09T14:23:52.627Z,3.10
2018-07-09T14:26:24.224Z,2.85
2018-07-09T14:28:55.039Z,2.90
2018-07-09T14:31:26.150Z,2.85
2018-07-09T14:33:57.340Z,2.62
2018-07-09T14:36:28.533Z,2.45
2018-07-09T14:38:59.499Z,2.33
2018-07-09T14:41:30.908Z,2.27
2018-07-09T14:44:02.200Z,2.80
2018-07-09T14:46:33.642Z,3.45
2018-07-09T14:49:04.976Z,3.90
2018-07-09T14:51:36.269Z,4.25
2018-07-09T14:54:07.793Z,4.55
2018-07-09T14:56:39.127Z,4.15
2018-07-09T14:59:10.419Z,4.40
2018-07-09T15:01:41.708Z,4.65
2018-07-09T15:04:13.209Z,4.53
2018-07-09T15:06:44.344Z,4.10
2018-07-09T15:09:15.962Z,4.87
2018-07-09T15:11:47.287Z,4.25
2018-07-09T15:14:18.513Z,4.22
2018-07-09T15:16:49.759Z,4.37
2018-07-09T15:19:21.217Z,4.33
2018-07-09T15:21:52.896Z,4.58
2018-07-09T15:24:23.888Z,5.30
2018-07-09T15:26:55.234Z,4.80
2018-07-09T15:29:26.709Z,4.83
2018-07-09T15:32:14.156Z,4.35
2018-07-09T15:34:45.762Z,4.58
2018-07-09T15:37:17.279Z,4.28
2018-07-09T15:39:48.559Z,4.65
2018-07-09T15:42:19.984Z,3.80
2018-07-09T15:44:51.701Z,4.60
2018-07-09T15:47:22.971Z,4.00
2018-07-09T15:49:54.409Z,4.33
2018-07-09T15:52:25.580Z,4.17
2018-07-09T15:54:57.241Z,5.47
2018-07-09T15:57:28.519Z,4.70
2018-07-09T15:59:59.762Z,4.33
2018-07-09T16:02:31.101Z,4.67
2018-07-09T16:05:02.610Z,16.07
2018-07-09T16:07:33.739Z,6.08
2018-07-09T16:10:04.532Z,4.17
2018-07-09T16:12:36.077Z,4.58
2018-07-09T16:15:07.546Z,4.62
2018-07-09T16:17:38.909Z,4.58
2018-07-09T16:20:10.253Z,5.95
2018-07-09T16:22:41.680Z,7.15
2018-07-09T16:25:13.120Z,11.70
2018-07-09T16:27:44.384Z,10.85
2018-07-09T16:30:15.504Z,6.62
2018-07-09T16:32:46.966Z,5.17
2018-07-09T16:35:18.443Z,5.42
2018-07-09T16:37:49.818Z,5.85
2018-07-09T16:40:21.216Z,4.80
2018-07-09T16:42:52.544Z,4.90
2018-07-09T16:45:24.638Z,4.53
2018-07-09T16:47:56.081Z,4.05
2018-07-09T16:50:27.478Z,4.70
2018-07-09T16:52:58.343Z,4.85
2018-07-09T16:55:29.537Z,4.87
2018-07-09T16:58:01.017Z,4.60
2018-07-09T17:00:32.569Z,4.08
2018-07-09T17:03:03.881Z,12.03
2018-07-09T17:05:35.292Z,26.23
2018-07-09T17:08:06.938Z,18.02
2018-07-09T17:10:38.576Z,6.80
2018-07-09T17:13:09.840Z,8.08
2018-07-09T17:15:41.397Z,6.78
2018-07-09T17:18:12.664Z,6.40
2018-07-09T17:20:44.095Z,6.12
2018-07-09T17:23:15.507Z,5.87
2018-07-09T17:25:46.963Z,4.50
2018-07-09T17:28:18.492Z,5.17
2018-07-09T17:30:49.564Z,6.45
2018-07-09T17:33:20.876Z,8.28
2018-07-09T17:35:52.224Z,8.60
2018-07-09T17:38:23.735Z,5.35
2018-07-09T17:40:55.396Z,4.62
2018-07-09T17:43:26.703Z,5.20
2018-07-09T17:45:57.524Z,7.10
2018-07-09T17:48:28.797Z,4.97
2018-07-09T17:51:00.272Z,4.45
2018-07-09T17:53:31.819Z,4.45
2018-07-09T17:56:03.234Z,4.55
2018-07-09T17:58:34.913Z,4.50
2018-07-09T18:01:06.460Z,5.00
2018-07-09T18:03:37.586Z,4.50
2018-07-09T18:06:08.739Z,4.92
2018-07-09T18:08:39.943Z,5.33
2018-07-09T18:11:11.016Z,4.72
2018-07-09T18:13:42.253Z,4.75
2018-07-09T18:16:13.809Z,4.58
2018-07-09T18:18:45.163Z,5.62
2018-07-09T18:21:16.715Z,4.90
2018-07-09T18:23:48.220Z,4.58
2018-07-09T18:26:19.389Z,4.80
2018-07-09T18:28:51.119Z,4.87
2018-07-09T18:31:23.270Z,5.05
2018-07-09T18:33:54.826Z,5.03
2018-07-09T18:36:26.111Z,4.37
2018-07-09T18:38:57.340Z,4.60
2018-07-09T18:41:28.582Z,5.62
2018-07-09T18:44:00.151Z,5.50
2018-07-09T18:46:31.595Z,5.00
2018-07-09T18:49:02.709Z,4.70
2018-07-09T18:51:34.278Z,4.17
2018-07-09T18:54:05.833Z,4.85
2018-07-09T18:56:37.016Z,4.75
2018-07-09T18:59:08.395Z,4.75
2018-07-09T19:01:39.693Z,4.50
2018-07-09T19:04:11.252Z,5.15
2018-07-09T19:06:56.095Z,10.03
2018-07-09T19:09:28.446Z,5.87
2018-07-09T19:12:01.089Z,4.70
2018-07-09T19:14:41.452Z,5.67
2018-07-09T19:18:27.586Z,5.30
2018-07-09T19:21:41.796Z,5.20
2018-07-09T19:24:11.788Z,5.22
2018-07-09T19:26:41.304Z,4.47
2018-07-09T19:29:10.153Z,4.80
2018-07-09T19:31:38.861Z,5.05
2018-07-09T19:34:07.771Z,5.35
2018-07-09T19:36:36.450Z,5.15
2018-07-09T19:39:06.075Z,5.53
2018-07-09T19:41:35.312Z,5.10
2018-07-09T19:44:04.103Z,5.20
2018-07-09T19:46:32.792Z,5.35
2018-07-09T19:49:01.519Z,4.65
2018-07-09T19:51:30.270Z,5.40
2018-07-09T19:53:58.980Z,5.92
2018-07-09T19:56:27.840Z,4.80
2018-07-09T19:58:56.536Z,4.90
2018-07-09T20:01:25.489Z,4.62
2018-07-09T20:03:54.309Z,4.83
2018-07-09T20:06:23.115Z,4.42
2018-07-09T20:08:56.974Z,4.65
2018-07-09T20:11:30.540Z,5.00
2018-07-09T20:14:04.973Z,4.03
2018-07-09T20:16:38.589Z,5.10
2018-07-09T20:19:07.759Z,6.05
2018-07-09T20:21:36.668Z,4.25
2018-07-09T20:24:05.373Z,4.30
2018-07-09T20:26:34.136Z,4.60
2018-07-09T20:29:02.869Z,4.87
2018-07-09T20:31:31.565Z,6.05
2018-07-09T20:34:00.397Z,6.20
2018-07-09T20:36:29.132Z,4.00
2018-07-09T20:38:57.876Z,3.87
2018-07-09T20:41:26.609Z,4.53
2018-07-09T20:43:55.408Z,5.15
2018-07-09T20:46:24.183Z,8.25
2018-07-09T20:48:52.971Z,4.30
2018-07-09T20:51:21.729Z,5.05
2018-07-09T20:53:50.540Z,4.30
2018-07-09T20:56:19.284Z,4.33
2018-07-09T20:58:48.010Z,3.80
2018-07-09T21:01:16.802Z,3.87
2018-07-09T21:03:45.537Z,3.60
2018-07-09T21:06:14.195Z,3.60
2018-07-09T21:08:42.967Z,4.17
2018-07-09T21:11:11.656Z,5.53
2018-07-09T21:13:40.375Z,7.28
2018-07-09T21:16:09.324Z,4.60
2018-07-09T21:18:37.963Z,3.70
2018-07-09T21:21:06.647Z,3.72
2018-07-09T21:23:35.368Z,3.20
2018-07-09T21:26:04.087Z,3.42
2018-07-09T21:28:32.918Z,3.42
2018-07-09T21:31:01.604Z,3.47
2018-07-09T21:33:30.331Z,3.45
2018-07-09T21:35:59.059Z,3.55
2018-07-09T21:38:27.906Z,3.42
2018-07-09T21:40:56.665Z,4.10
2018-07-09T21:43:25.659Z,10.78
2018-07-09T21:45:54.259Z,13.72
2018-07-09T21:48:29.783Z,11.35
2018-07-09T21:50:51.974Z,12.98
2018-07-09T21:53:21.251Z,4.53
2018-07-09T21:55:50.073Z,6.17
2018-07-09T21:58:18.927Z,7.10
2018-07-09T22:00:47.604Z,7.10
2018-07-09T22:03:16.400Z,7.45
2018-07-09T22:05:45.196Z,6.00
2018-07-09T22:08:13.964Z,4.80
2018-07-09T22:10:42.672Z,3.80
2018-07-09T22:13:11.344Z,3.80
2018-07-09T22:15:40.067Z,4.03
2018-07-09T22:18:08.828Z,4.00
2018-07-09T22:20:37.532Z,5.28
2018-07-09T22:23:06.284Z,3.95
2018-07-09T22:25:35.032Z,3.70
2018-07-09T22:28:03.759Z,3.45
2018-07-09T22:30:34.967Z,3.95
2018-07-09T22:33:06.243Z,4.05
2018-07-09T22:35:37.207Z,3.50
2018-07-09T22:38:08.454Z,3.47
2018-07-09T22:40:39.768Z,3.50
2018-07-09T22:43:21.224Z,3.60
2018-07-09T22:45:52.447Z,4.30
2018-07-09T22:48:23.875Z,3.70
2018-07-09T22:50:55.214Z,4.05
2018-07-09T22:53:26.599Z,3.72
2018-07-09T22:56:10.503Z,3.60
2018-07-09T22:58:42.787Z,3.62
2018-07-09T23:01:13.982Z,3.33
2018-07-09T23:03:45.615Z,6.55
2018-07-09T23:06:17.032Z,7.28
2018-07-09T23:08:48.450Z,3.70
2018-07-09T23:11:35.976Z,3.40
2018-07-09T23:16:51.425Z,4.20
2018-07-09T23:22:19.482Z,3.75
2018-07-09T23:24:48.201Z,3.85
2018-07-09T23:27:16.844Z,3.65
2018-07-09T23:29:45.605Z,3.70
2018-07-09T23:32:14.341Z,3.62
2018-07-09T23:34:43.023Z,3.40
2018-07-09T23:37:11.773Z,4.00
2018-07-09T23:39:40.477Z,3.85
2018-07-09T23:42:09.268Z,3.62
2018-07-09T23:44:37.971Z,3.50
2018-07-09T23:47:06.659Z,3.60
2018-07-09T23:49:35.274Z,3.70
2018-07-09T23:52:04.055Z,3.42
2018-07-09T23:54:32.744Z,3.05
2018-07-09T23:57:24.787Z,3.83
